Time;durP1;ratioP1;P1;durP2;ratioP2;P2;SDS_P1;SDS_P2;PMS_P1;PMS_P2;Temp;Humidity;BMP_temperature;BMP_pressure;BME280_temperature;BME280_humidity;BME280_pressure;Samples;Min_cycle;Max_cycle;Signal;HPM_P1;HPM_P2
2022/04/20 00:00:10;;;;;;;;;;;8.40;99.90;;;;;;5096289;28;19924;-61
2022/04/20 00:02:36;;;;;;;;;;;8.40;99.90;;;;;;5114859;28;20006;-61
2022/04/20 00:05:02;;;;;;;;;;;8.40;99.90;;;;;;5113730;28;19966;-61
2022/04/20 00:07:28;;;;;;;;;;;8.40;99.90;;;;;;5113918;28;19924;-61
2022/04/20 00:09:53;;;;;;;;;;;8.40;99.90;;;;;;5095991;28;20293;-61
2022/04/20 00:12:19;;;;;;;;;;;8.30;99.90;;;;;;5113267;28;19971;-62
2022/04/20 00:14:45;;;;;;;;;;;8.20;99.90;;;;;;5095923;28;19931;-61
2022/04/20 00:17:10;;;;;;;;;;;8.20;99.90;;;;;;5114427;28;19927;-61
2022/04/20 00:19:36;;;;;;;;;;;8.20;99.90;;;;;;5113625;28;19924;-62
2022/04/20 00:22:02;;;;;;;;;;;8.10;99.90;;;;;;5109390;28;20374;-61
2022/04/20 00:24:27;;;;;;;;;;;8.00;99.90;;;;;;5124595;27;20288;-61
2022/04/20 00:26:53;;;;;;;;;;;8.10;99.90;;;;;;5115453;27;19927;-61
2022/04/20 00:29:19;;;;;;;;;;;7.90;99.90;;;;;;5134105;27;19923;-61
2022/04/20 00:31:44;;;;;;;;;;;8.00;99.90;;;;;;5102340;28;19927;-61
2022/04/20 00:34:11;;;;;;;;;;;7.80;99.90;;;;;;5113484;28;19924;-61
2022/04/20 00:36:36;;;;;;;;;;;7.80;99.90;;;;;;5113839;28;19930;-61
2022/04/20 00:39:02;;;;;;;;;;;7.80;99.90;;;;;;5077908;28;20006;-61
2022/04/20 00:41:28;;;;;;;;;;;7.80;99.90;;;;;;5095586;28;19985;-61
2022/04/20 00:43:54;;;;;;;;;;;7.70;99.90;;;;;;5095544;28;19924;-61
2022/04/20 00:46:19;;;;;;;;;;;7.70;99.90;;;;;;5095118;28;19935;-61
2022/04/20 00:48:45;;;;;;;;;;;7.60;99.90;;;;;;5079051;28;19924;-61
2022/04/20 00:51:11;;;;;;;;;;;7.60;99.90;;;;;;5095426;28;19974;-61
2022/04/20 00:53:37;;;;;;;;;;;7.60;99.90;;;;;;5095077;28;19928;-61
2022/04/20 00:56:03;;;;;;;;;;;7.60;99.90;;;;;;5096173;28;19930;-61
2022/04/20 00:58:29;;;;;;;;;;;7.50;99.90;;;;;;5095292;28;20366;-61
2022/04/20 01:00:56;;;;;;;;;;;7.50;99.90;;;;;;5077839;28;19924;-61
2022/04/20 01:03:23;;;;;;;;;;;7.40;99.90;;;;;;5078710;28;19924;-61
2022/04/20 01:06:07;;;;;;;;;;;7.40;99.90;;;;;;5113260;28;20372;-61
2022/04/20 01:08:52;;;;;;;;;;;7.30;99.90;;;;;;5112777;28;19924;-61
2022/04/20 01:11:38;;;;;;;;;;;7.30;99.90;;;;;;5113381;28;19977;-61
2022/04/20 01:14:10;;;;;;;;;;;7.20;99.90;;;;;;5094751;28;19967;-61
2022/04/20 01:17:01;;;;;;;;;;;7.20;99.90;;;;;;5092223;28;19928;-61
2022/04/20 01:19:45;;;;;;;;;;;7.20;99.90;;;;;;5092760;28;20291;-61
2022/04/20 01:22:22;;;;;;;;;;;7.20;99.90;;;;;;5099944;28;20019;-61
2022/04/20 01:24:57;;;;;;;;;;;7.20;99.90;;;;;;5116745;27;19923;-61
2022/04/20 01:27:34;;;;;;;;;;;7.20;99.90;;;;;;5102136;27;20326;-61
2022/04/20 01:30:17;;;;;;;;;;;7.20;99.90;;;;;;5099833;27;20516;-61
2022/04/20 01:32:51;;;;;;;;;;;7.10;99.90;;;;;;5116500;28;19930;-61
2022/04/20 01:35:31;;;;;;;;;;;7.10;99.90;;;;;;5098132;28;19978;-61
2022/04/20 01:37:57;;;;;;;;;;;7.10;99.90;;;;;;5099431;28;20374;-61
2022/04/20 01:40:23;;;;;;;;;;;7.10;99.90;;;;;;5099382;28;19928;-61
2022/04/20 01:42:49;;;;;;;;;;;7.10;99.90;;;;;;5097740;28;20031;-61
2022/04/20 01:45:14;;;;;;;;;;;7.10;99.90;;;;;;5116209;28;19968;-61
2022/04/20 01:47:47;;;;;;;;;;;7.10;99.90;;;;;;5081734;28;20022;-61
2022/04/20 01:50:27;;;;;;;;;;;7.10;99.90;;;;;;5081095;28;19924;-61
2022/04/20 01:53:15;;;;;;;;;;;7.00;99.90;;;;;;5098782;28;20382;-60
2022/04/20 01:56:00;;;;;;;;;;;7.00;99.90;;;;;;5098684;28;20007;-61
2022/04/20 01:58:47;;;;;;;;;;;7.00;99.90;;;;;;5117062;28;19974;-61
2022/04/20 02:04:20;;;;;;;;;;;7.00;99.90;;;;;;5097729;28;19928;-61
2022/04/20 02:06:46;;;;;;;;;;;6.90;99.90;;;;;;5098833;28;19977;-61
2022/04/20 02:09:20;;;;;;;;;;;6.80;99.90;;;;;;5098794;28;19973;-60
2022/04/20 02:11:52;;;;;;;;;;;6.80;99.90;;;;;;5115401;28;19976;-61
2022/04/20 02:14:24;;;;;;;;;;;6.80;99.90;;;;;;5081330;28;19928;-61
2022/04/20 02:16:58;;;;;;;;;;;6.70;99.90;;;;;;5094886;28;19924;-61
2022/04/20 02:19:33;;;;;;;;;;;6.70;99.90;;;;;;5093990;28;19924;-61
2022/04/20 02:22:07;;;;;;;;;;;6.70;99.90;;;;;;5081425;28;19924;-61
2022/04/20 02:24:33;;;;;;;;;;;6.70;99.90;;;;;;5096914;27;20010;-60
2022/04/20 02:26:59;;;;;;;;;;;6.70;99.90;;;;;;5136841;27;19924;-61
2022/04/20 02:29:25;;;;;;;;;;;6.60;99.90;;;;;;5118529;27;19924;-61
2022/04/20 02:31:50;;;;;;;;;;;6.60;99.90;;;;;;5120992;27;19932;-61
2022/04/20 02:34:16;;;;;;;;;;;6.60;99.90;;;;;;5114913;28;19931;-60
2022/04/20 02:36:43;;;;;;;;;;;6.60;99.90;;;;;;5097139;28;19923;-61
2022/04/20 02:39:09;;;;;;;;;;;6.60;99.90;;;;;;5115553;28;19924;-61
2022/04/20 02:41:35;;;;;;;;;;;6.60;99.90;;;;;;5115781;28;20027;-61
2022/04/20 02:44:02;;;;;;;;;;;6.50;99.90;;;;;;5098075;28;19963;-61
2022/04/20 02:46:28;;;;;;;;;;;6.60;99.90;;;;;;5096886;28;19948;-61
2022/04/20 02:48:53;;;;;;;;;;;6.60;99.90;;;;;;5115365;28;20285;-61
2022/04/20 02:51:19;;;;;;;;;;;6.50;99.90;;;;;;5116033;28;20374;-60
2022/04/20 02:53:45;;;;;;;;;;;6.50;99.90;;;;;;5097347;28;19923;-61
2022/04/20 02:56:11;;;;;;;;;;;6.60;99.90;;;;;;5097117;28;19967;-61
2022/04/20 02:58:37;;;;;;;;;;;6.50;99.90;;;;;;5097485;28;19923;-61
2022/04/20 03:01:03;;;;;;;;;;;6.50;99.90;;;;;;5096790;28;19928;-61
2022/04/20 03:03:34;;;;;;;;;;;6.50;99.90;;;;;;5080085;28;19924;-61
2022/04/20 03:06:12;;;;;;;;;;;6.40;99.90;;;;;;5080560;28;19924;-60
2022/04/20 03:08:38;;;;;;;;;;;6.40;99.90;;;;;;5096775;28;19924;-61
2022/04/20 03:11:04;;;;;;;;;;;6.40;99.90;;;;;;5079803;28;19924;-61
2022/04/20 03:13:30;;;;;;;;;;;6.30;99.90;;;;;;5080462;28;19950;-60
2022/04/20 03:15:56;;;;;;;;;;;6.20;99.90;;;;;;5093328;28;19946;-61
2022/04/20 03:18:22;;;;;;;;;;;6.10;99.90;;;;;;5076644;28;20024;-60
2022/04/20 03:20:49;;;;;;;;;;;6.10;99.90;;;;;;5093110;28;20421;-60
2022/04/20 03:23:14;;;;;;;;;;;6.10;99.90;;;;;;5079759;27;19971;-60
2022/04/20 03:25:41;;;;;;;;;;;6.00;99.90;;;;;;5099852;27;19959;-61
2022/04/20 03:28:44;;;;;;;;;;;6.10;99.90;;;;;;5116756;27;20026;-61
2022/04/20 03:31:10;;;;;;;;;;;6.00;99.90;;;;;;5108179;28;20072;-61
2022/04/20 03:33:37;;;;;;;;;;;6.10;99.90;;;;;;5096526;28;20057;-61
2022/04/20 03:36:04;;;;;;;;;;;6.00;99.90;;;;;;5096459;28;19926;-60
2022/04/20 03:38:29;;;;;;;;;;;6.00;99.90;;;;;;5115268;28;20022;-61
2022/04/20 03:40:55;;;;;;;;;;;5.90;99.90;;;;;;5096221;28;20439;-61
2022/04/20 03:43:21;;;;;;;;;;;5.90;99.90;;;;;;5114397;28;20029;-60
2022/04/20 03:45:46;;;;;;;;;;;5.90;99.90;;;;;;5115081;28;20282;-61
2022/04/20 03:48:12;;;;;;;;;;;5.90;99.90;;;;;;5095717;28;19924;-61
2022/04/20 03:50:38;;;;;;;;;;;5.80;99.90;;;;;;5095866;28;19923;-60
2022/04/20 03:53:04;;;;;;;;;;;5.80;99.90;;;;;;5114695;28;19927;-60
2022/04/20 03:55:29;;;;;;;;;;;5.80;99.90;;;;;;5096420;28;20435;-60
2022/04/20 03:57:55;;;;;;;;;;;5.80;99.90;;;;;;5096028;28;19946;-60
2022/04/20 04:00:23;;;;;;;;;;;5.80;99.90;;;;;;5096461;28;19931;-61
2022/04/20 04:02:52;;;;;;;;;;;5.90;99.90;;;;;;5096160;28;19930;-61
2022/04/20 04:05:28;;;;;;;;;;;5.80;99.90;;;;;;5081088;28;20285;-60
2022/04/20 04:07:59;;;;;;;;;;;5.90;99.90;;;;;;5096254;28;19924;-60
2022/04/20 04:10:30;;;;;;;;;;;5.90;99.90;;;;;;5078185;28;19924;-61
2022/04/20 04:12:55;;;;;;;;;;;5.90;99.90;;;;;;5096429;28;20369;-61
2022/04/20 04:15:22;;;;;;;;;;;5.90;99.90;;;;;;5079246;28;20028;-60
2022/04/20 04:17:54;;;;;;;;;;;6.00;99.90;;;;;;5078081;28;19976;-61
2022/04/20 04:20:21;;;;;;;;;;;6.00;99.90;;;;;;5079106;28;20425;-60
2022/04/20 04:22:49;;;;;;;;;;;6.00;99.90;;;;;;5104872;27;19920;-61
2022/04/20 04:25:24;;;;;;;;;;;6.00;99.90;;;;;;5098487;27;19998;-60
2022/04/20 04:27:51;;;;;;;;;;;5.90;99.90;;;;;;5134793;27;19923;-60
2022/04/20 04:30:16;;;;;;;;;;;5.90;99.90;;;;;;5114428;28;19923;-60
2022/04/20 04:32:53;;;;;;;;;;;5.90;99.90;;;;;;5111494;28;20015;-60
2022/04/20 04:35:21;;;;;;;;;;;5.80;99.90;;;;;;5079144;28;20014;-60
2022/04/20 04:37:47;;;;;;;;;;;5.80;99.90;;;;;;5112629;28;20011;-60
2022/04/20 04:40:18;;;;;;;;;;;5.80;99.90;;;;;;5094752;28;19947;-61
2022/04/20 04:42:44;;;;;;;;;;;5.90;99.90;;;;;;5095898;28;19927;-60
2022/04/20 04:50:43;;;;;;;;;;;5.80;99.90;;;;;;5092338;28;19931;-60
2022/04/20 04:53:10;;;;;;;;;;;5.90;99.90;;;;;;5091446;28;19931;-60
2022/04/20 04:55:35;;;;;;;;;;;6.00;99.90;;;;;;5091533;28;19924;-61
2022/04/20 04:58:02;;;;;;;;;;;6.00;99.90;;;;;;5075418;28;19924;-60
2022/04/20 05:00:29;;;;;;;;;;;6.00;99.90;;;;;;5077480;28;19989;-60
2022/04/20 05:03:16;;;;;;;;;;;6.10;99.90;;;;;;5097352;28;19924;-60
2022/04/20 05:05:42;;;;;;;;;;;6.10;99.90;;;;;;5079403;28;20449;-60
2022/04/20 05:08:09;;;;;;;;;;;6.10;99.90;;;;;;5078793;28;20294;-60
2022/04/20 05:10:35;;;;;;;;;;;6.10;99.90;;;;;;5078706;28;19971;-61
2022/04/20 05:13:01;;;;;;;;;;;6.20;99.90;;;;;;5079288;28;19924;-60
2022/04/20 05:15:29;;;;;;;;;;;6.20;99.90;;;;;;5078555;28;20023;-60
2022/04/20 05:17:56;;;;;;;;;;;6.30;99.90;;;;;;5078575;28;20413;-60
2022/04/20 05:20:21;;;;;;;;;;;6.30;99.90;;;;;;5078379;28;19971;-60
2022/04/20 05:22:48;;;;;;;;;;;6.40;99.90;;;;;;5091607;27;19931;-60
2022/04/20 05:25:14;;;;;;;;;;;6.50;99.90;;;;;;5102386;27;20401;-61
2022/04/20 05:27:40;;;;;;;;;;;6.60;99.90;;;;;;5102019;27;19932;-60
2022/04/20 05:30:13;;;;;;;;;;;6.60;99.90;;;;;;5118814;27;20300;-61
2022/04/20 05:32:40;;;;;;;;;;;6.70;99.90;;;;;;5116097;28;19927;-60
2022/04/20 05:35:12;;;;;;;;;;;6.70;99.90;;;;;;5098769;28;19930;-61
2022/04/20 05:43:10;;;;;;;;;;;7.10;99.90;;;;;;5115644;28;20023;-60
2022/04/20 05:45:36;;;;;;;;;;;7.20;99.90;;;;;;5115588;28;20020;-60
2022/04/20 05:48:14;;;;;;;;;;;7.30;99.90;;;;;;5078744;28;19947;-60
2022/04/20 05:50:40;;;;;;;;;;;7.40;99.90;;;;;;5078006;28;19931;-61
2022/04/20 05:53:06;;;;;;;;;;;7.50;99.90;;;;;;5096510;28;20410;-61
2022/04/20 05:55:31;;;;;;;;;;;7.50;99.90;;;;;;5077856;28;19928;-61
2022/04/20 05:57:58;;;;;;;;;;;7.60;99.90;;;;;;5079748;28;19928;-60
2022/04/20 06:00:24;;;;;;;;;;;7.70;99.90;;;;;;5095108;28;19928;-60
2022/04/20 06:03:18;;;;;;;;;;;7.90;99.90;;;;;;5115627;28;19963;-61
2022/04/20 06:05:45;;;;;;;;;;;8.00;99.90;;;;;;5098247;28;20309;-60
2022/04/20 06:08:24;;;;;;;;;;;8.10;99.90;;;;;;5095441;28;19934;-60
2022/04/20 06:11:03;;;;;;;;;;;8.30;99.90;;;;;;5097425;28;19924;-60
2022/04/20 06:13:30;;;;;;;;;;;8.40;99.90;;;;;;5081666;28;19924;-61
2022/04/20 06:16:07;;;;;;;;;;;8.50;99.90;;;;;;5094562;28;19931;-61
2022/04/20 06:18:47;;;;;;;;;;;8.60;99.90;;;;;;5095328;28;19924;-61
2022/04/20 06:21:24;;;;;;;;;;;8.80;99.90;;;;;;5078282;28;19924;-60
2022/04/20 06:24:10;;;;;;;;;;;8.90;99.90;;;;;;5090114;28;19928;-61
2022/04/20 06:26:46;;;;;;;;;;;9.10;99.90;;;;;;5098625;28;19923;-60
2022/04/20 06:29:31;;;;;;;;;;;9.20;99.90;;;;;;5116430;28;19931;-60
2022/04/20 06:32:05;;;;;;;;;;;9.30;99.90;;;;;;5115053;28;20335;-61
2022/04/20 06:34:39;;;;;;;;;;;9.40;99.90;;;;;;5081126;28;19923;-61
2022/04/20 06:37:24;;;;;;;;;;;9.60;99.90;;;;;;5115840;28;19934;-61
2022/04/20 06:40:11;;;;;;;;;;;9.60;99.90;;;;;;5098164;28;19927;-60
2022/04/20 06:42:54;;;;;;;;;;;9.70;99.90;;;;;;5097814;28;19923;-60
2022/04/20 06:45:31;;;;;;;;;;;9.80;99.90;;;;;;5096885;28;19928;-60
2022/04/20 06:48:18;;;;;;;;;;;10.00;99.90;;;;;;5064020;28;19924;-60
2022/04/20 06:50:50;;;;;;;;;;;10.10;99.90;;;;;;5094725;28;19927;-61
2022/04/20 06:59:05;;;;;;;;;;;10.50;99.90;;;;;;5113034;28;20472;-61
2022/04/20 07:01:57;;;;;;;;;;;10.60;99.90;;;;;;5114646;28;19976;-61
2022/04/20 07:04:23;;;;;;;;;;;10.90;99.90;;;;;;5111164;28;19932;-61
2022/04/20 07:06:54;;;;;;;;;;;10.90;99.90;;;;;;5080252;28;19985;-61
2022/04/20 07:09:27;;;;;;;;;;;11.00;99.90;;;;;;5092465;28;19975;-61
2022/04/20 07:12:00;;;;;;;;;;;11.10;99.90;;;;;;5096181;28;19928;-61
2022/04/20 07:14:26;;;;;;;;;;;11.20;99.90;;;;;;5091420;28;20015;-61
2022/04/20 07:16:52;;;;;;;;;;;11.30;99.90;;;;;;5087667;28;20091;-61
2022/04/20 07:19:22;;;;;;;;;;;11.50;99.90;;;;;;5096114;28;19972;-60
2022/04/20 07:22:06;;;;;;;;;;;11.60;99.90;;;;;;5112532;28;19923;-61
2022/04/20 07:24:46;;;;;;;;;;;11.60;99.90;;;;;;5114916;27;19963;-61
2022/04/20 07:27:36;;;;;;;;;;;11.80;99.90;;;;;;5091210;28;19923;-61
2022/04/20 07:30:21;;;;;;;;;;;11.90;99.90;;;;;;5114831;28;19939;-61
2022/04/20 07:33:04;;;;;;;;;;;12.10;99.90;;;;;;5096386;28;19924;-61
2022/04/20 07:35:37;;;;;;;;;;;12.20;99.90;;;;;;5094922;28;19984;-61
2022/04/20 07:38:24;;;;;;;;;;;12.30;99.90;;;;;;5093849;28;19928;-61
2022/04/20 07:41:18;;;;;;;;;;;12.40;99.90;;;;;;5113346;28;19928;-61
2022/04/20 07:44:01;;;;;;;;;;;12.50;99.90;;;;;;5092388;28;19928;-61
2022/04/20 07:46:31;;;;;;;;;;;12.70;99.90;;;;;;5092579;28;20435;-61
2022/04/20 07:52:22;;;;;;;;;;;12.90;99.90;;;;;;5092079;28;20271;-62
2022/04/20 07:55:00;;;;;;;;;;;13.10;99.90;;;;;;5114089;28;20349;-61
2022/04/20 07:57:37;;;;;;;;;;;13.20;99.90;;;;;;5078992;28;20004;-61
2022/04/20 08:00:31;;;;;;;;;;;13.30;99.90;;;;;;5077604;28;19978;-61
2022/04/20 08:03:16;;;;;;;;;;;13.30;99.90;;;;;;5098158;28;19931;-61
2022/04/20 08:05:50;;;;;;;;;;;13.40;99.70;;;;;;5096282;28;19924;-61
2022/04/20 08:08:16;;;;;;;;;;;13.50;99.80;;;;;;5094781;28;19946;-60
2022/04/20 08:10:42;;;;;;;;;;;13.70;99.50;;;;;;5112808;28;20370;-61
2022/04/20 08:15:55;;;;;;;;;;;13.90;99.40;;;;;;5112844;28;19976;-61
2022/04/20 08:18:21;;;;;;;;;;;14.00;99.60;;;;;;5094824;28;19977;-61
2022/04/20 08:21:20;;;;;;;;;;;14.10;98.90;;;;;;5113868;28;19936;-61
2022/04/20 08:23:46;;;;;;;;;;;14.20;98.20;;;;;;5113293;27;19923;-61
2022/04/20 08:26:13;;;;;;;;;;;14.30;98.40;;;;;;5134771;27;19963;-60
2022/04/20 08:28:39;;;;;;;;;;;14.40;97.50;;;;;;5100434;28;19930;-61
2022/04/20 08:31:05;;;;;;;;;;;14.50;97.60;;;;;;5112522;28;19924;-61
2022/04/20 08:33:30;;;;;;;;;;;14.60;97.80;;;;;;5114167;28;19982;-61
2022/04/20 08:35:56;;;;;;;;;;;14.60;96.30;;;;;;5095237;28;19930;-61
2022/04/20 08:38:22;;;;;;;;;;;14.90;96.80;;;;;;5112747;28;19963;-61
2022/04/20 08:40:49;;;;;;;;;;;14.90;96.80;;;;;;5113924;28;19930;-61
2022/04/20 08:43:15;;;;;;;;;;;15.00;95.30;;;;;;5113706;28;20558;-61
2022/04/20 08:45:41;;;;;;;;;;;15.20;96.00;;;;;;5112542;28;19927;-61
2022/04/20 08:48:07;;;;;;;;;;;15.30;94.80;;;;;;5095100;28;19920;-61
2022/04/20 08:50:33;;;;;;;;;;;15.40;93.70;;;;;;5113624;28;20007;-61
2022/04/20 08:52:58;;;;;;;;;;;15.50;93.00;;;;;;5094108;28;19931;-61
2022/04/20 08:55:24;;;;;;;;;;;15.50;92.60;;;;;;5113458;28;19965;-61
2022/04/20 08:57:52;;;;;;;;;;;15.60;91.50;;;;;;5113733;28;20409;-61
2022/04/20 09:00:21;;;;;;;;;;;15.70;91.50;;;;;;5112550;28;19924;-62
2022/04/20 09:02:50;;;;;;;;;;;15.80;92.00;;;;;;5113410;28;19977;-61
2022/04/20 09:05:15;;;;;;;;;;;16.00;91.60;;;;;;5113801;28;19984;-61
2022/04/20 09:07:41;;;;;;;;;;;16.10;90.90;;;;;;5112412;28;19932;-61
2022/04/20 09:10:06;;;;;;;;;;;16.20;87.40;;;;;;5113641;28;19969;-61
2022/04/20 09:12:32;;;;;;;;;;;16.30;82.90;;;;;;5112193;28;19969;-61
2022/04/20 09:15:00;;;;;;;;;;;16.40;78.60;;;;;;5113378;28;19923;-62
2022/04/20 09:17:26;;;;;;;;;;;16.40;75.90;;;;;;5113444;28;19924;-61
2022/04/20 09:19:53;;;;;;;;;;;16.50;77.40;;;;;;5112558;28;20305;-61
2022/04/20 09:22:22;;;;;;;;;;;16.50;74.80;;;;;;5112754;28;19995;-62
2022/04/20 09:24:57;;;;;;;;;;;16.60;71.40;;;;;;5131978;28;19927;-61
2022/04/20 09:27:24;;;;;;;;;;;16.60;70.20;;;;;;5133356;28;20012;-62
2022/04/20 09:29:54;;;;;;;;;;;16.80;70.40;;;;;;5124615;28;19967;-61
2022/04/20 09:32:32;;;;;;;;;;;16.90;69.20;;;;;;5113553;28;20010;-62
2022/04/20 09:34:59;;;;;;;;;;;17.10;68.80;;;;;;5112756;28;19924;-61
2022/04/20 09:37:26;;;;;;;;;;;17.20;67.00;;;;;;5113133;28;19977;-62
2022/04/20 09:39:54;;;;;;;;;;;17.20;66.40;;;;;;5094506;28;19976;-61
2022/04/20 09:42:20;;;;;;;;;;;17.30;66.20;;;;;;5112719;28;19923;-61
2022/04/20 09:44:57;;;;;;;;;;;17.50;64.20;;;;;;5095084;28;20041;-62
2022/04/20 09:50:09;;;;;;;;;;;17.70;61.70;;;;;;5116898;28;19923;-62
2022/04/20 09:52:35;;;;;;;;;;;17.80;61.70;;;;;;5098294;28;19923;-62
2022/04/20 09:55:01;;;;;;;;;;;17.90;61.00;;;;;;5097681;28;19931;-62
2022/04/20 09:57:28;;;;;;;;;;;18.10;60.40;;;;;;5116605;28;19923;-62
2022/04/20 09:59:56;;;;;;;;;;;18.10;58.90;;;;;;5116601;28;20006;-62
2022/04/20 10:02:21;;;;;;;;;;;18.10;56.60;;;;;;5116141;28;20356;-61
2022/04/20 10:04:48;;;;;;;;;;;18.10;57.90;;;;;;5116364;28;20003;-62
2022/04/20 10:07:14;;;;;;;;;;;18.20;60.20;;;;;;5116603;28;20015;-62
2022/04/20 10:09:40;;;;;;;;;;;18.30;60.60;;;;;;5115730;28;19946;-62
2022/04/20 10:12:07;;;;;;;;;;;18.50;59.20;;;;;;5097972;28;20480;-62
2022/04/20 10:17:21;;;;;;;;;;;18.80;57.80;;;;;;5097644;28;20388;-62
2022/04/20 10:19:47;;;;;;;;;;;19.20;56.70;;;;;;5116392;28;20373;-62
2022/04/20 10:22:15;;;;;;;;;;;19.60;54.40;;;;;;5112062;28;20319;-62
2022/04/20 10:24:42;;;;;;;;;;;20.00;52.50;;;;;;5114547;27;19950;-62
2022/04/20 10:27:09;;;;;;;;;;;20.50;51.70;;;;;;5136938;27;19930;-62
2022/04/20 10:29:36;;;;;;;;;;;21.10;49.10;;;;;;5136484;27;19972;-62
2022/04/20 10:32:07;;;;;;;;;;;21.70;49.20;;;;;;5106786;28;19969;-62
2022/04/20 10:34:34;;;;;;;;;;;22.30;46.70;;;;;;5097906;28;19924;-62
2022/04/20 10:37:15;;;;;;;;;;;22.90;45.90;;;;;;5079701;28;19934;-62
2022/04/20 10:39:49;;;;;;;;;;;23.40;44.80;;;;;;5080337;28;20393;-62
2022/04/20 10:42:18;;;;;;;;;;;24.10;44.20;;;;;;5080466;28;19930;-62
2022/04/20 10:44:51;;;;;;;;;;;24.70;41.30;;;;;;5115237;28;19969;-62
2022/04/20 10:47:22;;;;;;;;;;;25.00;41.80;;;;;;5115652;28;20339;-62
2022/04/20 10:49:49;;;;;;;;;;;25.50;41.90;;;;;;5096821;28;19931;-62
2022/04/20 10:52:22;;;;;;;;;;;25.90;40.20;;;;;;5115417;28;19923;-62
2022/04/20 10:54:51;;;;;;;;;;;26.10;40.50;;;;;;5080390;28;19923;-62
2022/04/20 10:57:16;;;;;;;;;;;26.30;39.10;;;;;;5096160;28;19979;-62
2022/04/20 10:59:42;;;;;;;;;;;26.50;39.50;;;;;;5114499;28;19978;-62
2022/04/20 11:02:09;;;;;;;;;;;26.60;38.70;;;;;;5115715;28;19924;-62
2022/04/20 11:04:39;;;;;;;;;;;26.70;38.00;;;;;;5115227;28;19924;-62
2022/04/20 11:07:06;;;;;;;;;;;26.80;38.40;;;;;;5096036;28;19969;-62
2022/04/20 11:09:56;;;;;;;;;;;27.10;38.60;;;;;;5097039;28;20378;-63
2022/04/20 11:21:06;;;;;;;;;;;27.60;37.20;;;;;;5112767;28;20365;-63
2022/04/20 11:23:48;;;;;;;;;;;28.00;36.50;;;;;;5093673;28;21539;-63
2022/04/20 11:26:19;;;;;;;;;;;28.30;37.40;;;;;;5113924;28;20434;-63
2022/04/20 11:28:45;;;;;;;;;;;28.40;35.40;;;;;;5114880;28;19969;-63
2022/04/20 11:31:11;;;;;;;;;;;28.60;36.00;;;;;;5114922;28;19931;-63
2022/04/20 11:33:38;;;;;;;;;;;28.40;34.50;;;;;;5114039;28;19924;-63
2022/04/20 11:36:04;;;;;;;;;;;28.40;35.70;;;;;;5113536;28;19966;-62
2022/04/20 11:38:37;;;;;;;;;;;28.80;35.80;;;;;;5114910;28;19959;-63
2022/04/20 11:41:04;;;;;;;;;;;29.10;36.20;;;;;;5114352;28;20003;-63
2022/04/20 11:43:29;;;;;;;;;;;29.30;34.30;;;;;;5114188;28;19930;-63
2022/04/20 11:45:55;;;;;;;;;;;29.50;34.70;;;;;;5114756;28;19920;-63
2022/04/20 11:48:21;;;;;;;;;;;;;;;;;;5113868;28;20385;-63
2022/04/20 11:50:47;;;;;;;;;;;;;;;;;;5114278;28;19924;-63
2022/04/20 11:53:14;;;;;;;;;;;30.30;34.10;;;;;;5096320;28;20401;-63
2022/04/20 11:55:58;;;;;;;;;;;30.50;34.10;;;;;;5078927;28;20270;-63
2022/04/20 11:58:23;;;;;;;;;;;30.60;34.30;;;;;;5113875;28;19980;-63
2022/04/20 12:00:58;;;;;;;;;;;30.80;36.00;;;;;;5114328;28;20014;-63
2022/04/20 12:03:23;;;;;;;;;;;30.90;32.80;;;;;;5113703;28;19935;-63
2022/04/20 12:05:59;;;;;;;;;;;30.80;33.30;;;;;;5114401;28;19924;-63
2022/04/20 12:08:24;;;;;;;;;;;30.80;33.10;;;;;;5112667;28;19930;-63
2022/04/20 12:10:52;;;;;;;;;;;31.00;32.80;;;;;;5114206;28;20007;-63
2022/04/20 12:13:24;;;;;;;;;;;31.00;34.00;;;;;;5114088;28;19930;-63
2022/04/20 12:15:58;;;;;;;;;;;31.20;36.00;;;;;;5106788;28;19924;-63
2022/04/20 12:18:24;;;;;;;;;;;31.40;32.20;;;;;;5087171;28;19934;-63
2022/04/20 12:20:49;;;;;;;;;;;31.50;32.90;;;;;;5114286;28;20014;-63
2022/04/20 12:23:16;;;;;;;;;;;31.70;32.20;;;;;;5113239;28;19924;-63
2022/04/20 12:25:41;;;;;;;;;;;31.60;31.70;;;;;;5114097;28;19938;-63
2022/04/20 12:28:35;;;;;;;;;;;31.30;31.10;;;;;;5113317;28;19923;-63
2022/04/20 12:30:59;;;;;;;;;;;31.10;31.90;;;;;;5113027;28;19931;-63
2022/04/20 12:33:25;;;;;;;;;;;31.20;32.10;;;;;;5113871;28;20370;-63
2022/04/20 12:36:01;;;;;;;;;;;31.40;32.30;;;;;;5095421;28;19946;-63
2022/04/20 12:38:45;;;;;;;;;;;31.50;32.10;;;;;;5094768;28;20018;-63
2022/04/20 12:41:31;;;;;;;;;;;31.60;33.00;;;;;;5113528;28;19927;-63
2022/04/20 12:43:57;;;;;;;;;;;31.80;32.80;;;;;;5112303;28;19931;-63
2022/04/20 12:46:31;;;;;;;;;;;32.00;33.00;;;;;;5095509;28;19928;-63
2022/04/20 12:48:57;;;;;;;;;;;32.10;32.50;;;;;;5113516;28;19924;-63
2022/04/20 12:51:23;;;;;;;;;;;32.20;32.60;;;;;;5113087;28;20285;-63
2022/04/20 12:53:49;;;;;;;;;;;32.30;32.00;;;;;;5113643;28;19931;-63
2022/04/20 13:02:02;;;;;;;;;;;32.20;32.50;;;;;;5094888;28;20385;-64
2022/04/20 13:04:28;;;;;;;;;;;31.90;32.60;;;;;;5112898;28;19931;-63
2022/04/20 13:06:55;;;;;;;;;;;31.80;32.80;;;;;;5113497;28;19981;-63
2022/04/20 13:09:21;;;;;;;;;;;31.80;33.20;;;;;;5113606;28;19978;-63
2022/04/20 13:11:47;;;;;;;;;;;31.70;33.50;;;;;;5111979;28;20373;-63
2022/04/20 13:14:13;;;;;;;;;;;31.70;33.20;;;;;;5095474;28;19924;-63
2022/04/20 13:16:38;;;;;;;;;;;31.70;34.00;;;;;;5113440;28;19925;-63
2022/04/20 13:19:04;;;;;;;;;;;31.70;33.90;;;;;;5112157;28;19924;-63
2022/04/20 13:21:30;;;;;;;;;;;31.50;34.10;;;;;;5115865;28;20397;-64
2022/04/20 13:23:56;;;;;;;;;;;31.30;34.20;;;;;;5115259;28;20565;-63
2022/04/20 13:29:07;;;;;;;;;;;31.30;34.50;;;;;;5116700;28;20422;-63
2022/04/20 13:31:32;;;;;;;;;;;31.10;34.80;;;;;;5117626;28;19923;-63
2022/04/20 13:33:58;;;;;;;;;;;31.00;35.30;;;;;;5097957;28;19920;-63
2022/04/20 13:36:24;;;;;;;;;;;30.80;34.80;;;;;;5117474;28;19928;-63
2022/04/20 13:38:50;;;;;;;;;;;30.70;35.30;;;;;;5116962;28;19993;-64
2022/04/20 13:41:16;;;;;;;;;;;30.60;35.80;;;;;;5116086;28;20270;-64
2022/04/20 13:43:42;;;;;;;;;;;30.60;36.00;;;;;;5117403;28;19970;-64
2022/04/20 13:46:08;;;;;;;;;;;30.60;36.10;;;;;;5098289;28;20471;-64
2022/04/20 13:48:33;;;;;;;;;;;30.80;36.50;;;;;;5097422;28;20018;-64
2022/04/20 13:50:59;;;;;;;;;;;30.70;35.80;;;;;;5116904;28;20007;-64
2022/04/20 13:53:25;;;;;;;;;;;30.80;36.60;;;;;;5116853;28;19924;-64
2022/04/20 13:55:51;;;;;;;;;;;30.70;35.00;;;;;;5115325;28;19932;-64
2022/04/20 13:58:17;;;;;;;;;;;30.60;35.80;;;;;;5116860;28;20322;-64
2022/04/20 14:00:42;;;;;;;;;;;30.60;35.50;;;;;;5116720;28;19971;-64
2022/04/20 14:03:08;;;;;;;;;;;30.40;34.10;;;;;;5115763;28;19930;-64
2022/04/20 14:05:34;;;;;;;;;;;29.90;34.00;;;;;;5098298;28;19935;-63
2022/04/20 14:08:00;;;;;;;;;;;29.70;34.70;;;;;;5115862;28;20006;-63
2022/04/20 14:10:26;;;;;;;;;;;29.80;35.10;;;;;;5116173;28;19978;-64
2022/04/20 14:12:51;;;;;;;;;;;30.10;35.40;;;;;;5116404;28;19923;-63
2022/04/20 14:15:18;;;;;;;;;;;30.60;35.50;;;;;;5115617;28;20282;-64
2022/04/20 14:17:45;;;;;;;;;;;31.00;34.10;;;;;;5097719;28;19928;-64
2022/04/20 14:20:11;;;;;;;;;;;31.30;34.00;;;;;;5116442;28;19984;-64
2022/04/20 14:22:36;;;;;;;;;;;31.30;34.60;;;;;;5115375;28;19924;-64
2022/04/20 14:33:15;;;;;;;;;;;31.50;33.90;;;;;;5115920;28;19931;-64
2022/04/20 14:35:40;;;;;;;;;;;31.60;34.10;;;;;;5116370;28;19928;-64
2022/04/20 14:38:06;;;;;;;;;;;31.80;33.40;;;;;;5096908;28;19975;-64
2022/04/20 14:40:34;;;;;;;;;;;31.60;33.70;;;;;;5115661;28;20014;-64
2022/04/20 14:42:59;;;;;;;;;;;31.70;33.80;;;;;;5096976;28;20457;-64
2022/04/20 14:45:27;;;;;;;;;;;31.80;34.00;;;;;;5080639;28;19924;-64
2022/04/20 14:47:53;;;;;;;;;;;31.90;34.10;;;;;;5079544;28;19924;-64
2022/04/20 14:50:21;;;;;;;;;;;31.90;33.40;;;;;;5115103;28;19924;-64
2022/04/20 14:52:47;;;;;;;;;;;31.70;33.20;;;;;;5115727;28;20007;-64
2022/04/20 14:55:12;;;;;;;;;;;31.30;33.70;;;;;;5097461;28;20398;-64
2022/04/20 14:57:38;;;;;;;;;;;30.90;34.30;;;;;;5114487;28;19924;-64
2022/04/20 15:00:04;;;;;;;;;;;30.60;34.50;;;;;;5115774;28;20273;-63
2022/04/20 15:02:30;;;;;;;;;;;30.20;34.70;;;;;;5115416;28;19923;-64
2022/04/20 15:04:56;;;;;;;;;;;30.10;35.30;;;;;;5114999;28;19966;-64
2022/04/20 15:07:22;;;;;;;;;;;30.50;35.10;;;;;;5115154;28;19924;-64
2022/04/20 15:09:47;;;;;;;;;;;30.50;34.70;;;;;;5114915;28;19927;-64
2022/04/20 15:12:13;;;;;;;;;;;30.50;35.30;;;;;;5114403;28;19959;-64
2022/04/20 15:14:39;;;;;;;;;;;30.10;35.70;;;;;;5115033;28;20300;-63
2022/04/20 15:17:05;;;;;;;;;;;29.40;36.00;;;;;;5114958;28;20023;-64
2022/04/20 15:19:31;;;;;;;;;;;29.00;36.70;;;;;;5114377;28;19927;-64
2022/04/20 15:21:58;;;;;;;;;;;28.40;37.00;;;;;;5113059;28;19947;-64
2022/04/20 15:24:23;;;;;;;;;;;27.70;37.90;;;;;;5114343;28;20325;-64
2022/04/20 15:26:49;;;;;;;;;;;27.00;38.90;;;;;;5114383;28;19928;-63
2022/04/20 15:29:16;;;;;;;;;;;26.80;39.00;;;;;;5114878;28;19931;-63
2022/04/20 15:31:41;;;;;;;;;;;26.30;39.10;;;;;;5096196;28;20393;-64
2022/04/20 15:34:07;;;;;;;;;;;26.10;40.20;;;;;;5093963;28;20011;-63